createdAt,value
2023-04-17T00:00:09.788Z,18.59
2023-04-17T00:02:40.287Z,18.67
2023-04-17T00:05:09.509Z,18.69
2023-04-17T00:07:39.077Z,18.75
2023-04-17T00:10:08.989Z,18.74
2023-04-17T00:12:37.391Z,18.76
2023-04-17T00:15:06.935Z,18.77
2023-04-17T00:17:35.623Z,18.79
2023-04-17T00:20:10.972Z,18.80
2023-04-17T00:22:39.468Z,18.89
2023-04-17T00:25:10.588Z,18.84
2023-04-17T00:27:39.115Z,18.81
2023-04-17T00:30:08.493Z,18.82
2023-04-17T00:32:38.215Z,18.81
2023-04-17T00:35:07.491Z,18.79
2023-04-17T00:37:36.407Z,18.78
2023-04-17T00:40:05.368Z,18.75
2023-04-17T00:42:33.932Z,18.82
2023-04-17T00:45:02.442Z,18.87
2023-04-17T00:47:30.864Z,18.90
2023-04-17T00:49:59.593Z,18.92
2023-04-17T00:52:30.072Z,18.93
2023-04-17T00:54:58.912Z,18.95
2023-04-17T00:57:28.064Z,18.92
2023-04-17T00:59:56.977Z,18.87
2023-04-17T01:02:26.417Z,18.88
2023-04-17T01:04:55.051Z,18.85
2023-04-17T01:07:23.772Z,18.78
2023-04-17T01:09:52.580Z,18.78
2023-04-17T01:12:22.972Z,18.82
2023-04-17T01:14:54.658Z,18.79
2023-04-17T01:17:23.226Z,18.80
2023-04-17T01:19:51.908Z,18.80
2023-04-17T01:22:20.991Z,18.82
2023-04-17T01:24:49.517Z,18.84
2023-04-17T01:27:18.261Z,18.87
2023-04-17T01:29:48.147Z,18.86
2023-04-17T01:32:17.450Z,18.91
2023-04-17T01:34:46.111Z,18.91
2023-04-17T01:37:14.575Z,18.92
2023-04-17T01:39:43.003Z,18.90
2023-04-17T01:42:11.434Z,18.87
2023-04-17T01:44:39.843Z,18.90
2023-04-17T01:47:08.364Z,18.94
2023-04-17T01:49:36.683Z,18.97
2023-04-17T01:52:05.324Z,18.97
2023-04-17T01:54:34.033Z,18.96
2023-04-17T01:57:02.746Z,18.91
2023-04-17T01:59:30.973Z,18.89
2023-04-17T02:01:59.406Z,18.90
2023-04-17T02:04:28.083Z,18.93
2023-04-17T02:06:56.858Z,18.91
2023-04-17T02:09:25.523Z,18.89
2023-04-17T02:11:53.904Z,18.88
2023-04-17T02:14:22.104Z,18.87
2023-04-17T02:16:50.948Z,18.86
2023-04-17T02:19:19.618Z,18.86
2023-04-17T02:21:47.994Z,18.85
2023-04-17T02:24:16.273Z,18.86
2023-04-17T02:26:45.290Z,18.87
2023-04-17T02:29:14.613Z,18.79
2023-04-17T02:31:43.587Z,18.73
2023-04-17T02:34:13.170Z,18.69
2023-04-17T02:36:41.791Z,18.71
2023-04-17T02:39:10.319Z,18.73
2023-04-17T02:41:40.974Z,18.77
2023-04-17T02:44:09.973Z,18.75
2023-04-17T02:46:38.491Z,18.78
2023-04-17T02:49:07.706Z,18.78
2023-04-17T02:51:36.911Z,18.80
2023-04-17T02:54:05.572Z,18.82
2023-04-17T02:56:35.098Z,18.76
2023-04-17T02:59:03.820Z,18.74
2023-04-17T03:01:34.236Z,18.73
2023-04-17T03:04:02.761Z,18.75
2023-04-17T03:06:32.294Z,18.71
2023-04-17T03:09:00.599Z,18.72
2023-04-17T03:11:29.494Z,18.74
2023-04-17T03:13:57.720Z,18.75
2023-04-17T03:16:25.981Z,18.81
2023-04-17T03:18:55.093Z,18.83
2023-04-17T03:21:23.298Z,18.83
2023-04-17T03:23:51.675Z,18.81
2023-04-17T03:26:21.792Z,18.82
2023-04-17T03:28:50.514Z,18.87
2023-04-17T03:31:19.298Z,18.86
2023-04-17T03:33:47.686Z,18.85
2023-04-17T03:36:17.092Z,18.87
2023-04-17T03:38:45.626Z,18.89
2023-04-17T03:41:15.159Z,18.85
2023-04-17T03:43:43.696Z,18.84
2023-04-17T03:46:12.015Z,18.82
2023-04-17T03:48:40.561Z,18.82
2023-04-17T03:51:09.022Z,18.86
2023-04-17T03:53:37.583Z,18.88
2023-04-17T03:56:08.259Z,18.93
2023-04-17T03:58:38.840Z,18.91
2023-04-17T04:01:11.113Z,18.94
2023-04-17T04:03:43.496Z,18.95
2023-04-17T04:06:12.400Z,18.95
2023-04-17T04:08:40.914Z,18.97
2023-04-17T04:11:11.749Z,19.01
2023-04-17T04:13:40.206Z,19.06
2023-04-17T04:16:08.856Z,19.12
2023-04-17T04:18:37.940Z,19.16
2023-04-17T04:21:06.559Z,19.13
2023-04-17T04:23:40.431Z,19.11
2023-04-17T04:26:12.069Z,19.11
2023-04-17T04:28:44.784Z,19.07
2023-04-17T04:31:32.104Z,19.08
2023-04-17T04:34:03.172Z,19.07
2023-04-17T04:36:32.045Z,19.06
2023-04-17T04:39:20.908Z,19.06
2023-04-17T04:41:52.665Z,19.05
2023-04-17T04:44:22.889Z,19.08
2023-04-17T04:46:55.782Z,19.11
2023-04-17T04:49:24.596Z,19.10
2023-04-17T04:51:52.931Z,19.13
2023-04-17T04:54:22.073Z,19.15
2023-04-17T04:56:54.979Z,19.15
2023-04-17T04:59:23.846Z,19.16
2023-04-17T05:01:59.444Z,19.20
2023-04-17T05:04:28.719Z,19.16
2023-04-17T05:07:00.516Z,19.12
2023-04-17T05:09:35.833Z,19.12
2023-04-17T05:12:11.175Z,19.13
2023-04-17T05:14:39.818Z,19.12
2023-04-17T05:17:08.942Z,19.15
2023-04-17T05:19:37.306Z,19.14
2023-04-17T05:22:08.263Z,19.19
2023-04-17T05:24:41.491Z,19.25
2023-04-17T05:27:11.253Z,19.24
2023-04-17T05:29:40.145Z,19.20
2023-04-17T05:32:09.412Z,19.27
2023-04-17T05:34:59.696Z,19.35
2023-04-17T05:37:29.429Z,19.37
2023-04-17T05:40:00.218Z,19.40
2023-04-17T05:42:29.541Z,19.43
2023-04-17T05:44:58.390Z,19.42
2023-04-17T05:47:26.755Z,19.42
2023-04-17T05:49:58.365Z,19.43
2023-04-17T05:52:28.973Z,19.44
2023-04-17T05:54:57.958Z,19.47
2023-04-17T05:57:26.455Z,19.55
2023-04-17T05:59:54.797Z,19.59
2023-04-17T06:02:23.498Z,19.62
2023-04-17T06:04:52.330Z,19.66
2023-04-17T06:07:20.951Z,19.73
2023-04-17T06:09:49.465Z,19.76
2023-04-17T06:12:17.786Z,19.82
2023-04-17T06:14:46.540Z,19.87
2023-04-17T06:17:16.114Z,19.92
2023-04-17T06:19:44.626Z,19.95
2023-04-17T06:22:13.137Z,20.05
2023-04-17T06:27:41.980Z,19.15
2023-04-17T06:30:11.761Z,20.42
2023-04-17T06:32:49.454Z,20.45
2023-04-17T06:35:18.040Z,20.36
2023-04-17T06:37:50.381Z,20.32
2023-04-17T06:40:19.100Z,20.28
2023-04-17T06:42:47.525Z,20.23
2023-04-17T06:45:20.980Z,20.22
2023-04-17T06:47:49.715Z,20.23
2023-04-17T06:50:19.042Z,20.26
2023-04-17T06:52:47.518Z,20.29
2023-04-17T06:55:15.867Z,20.26
2023-04-17T06:57:44.280Z,20.21
2023-04-17T07:00:13.666Z,20.18
2023-04-17T07:02:42.843Z,20.23
2023-04-17T07:05:11.744Z,20.25
2023-04-17T07:07:41.585Z,20.27
2023-04-17T07:10:10.247Z,20.29
2023-04-17T07:12:38.970Z,20.31
2023-04-17T07:15:08.712Z,20.27
2023-04-17T07:17:37.575Z,20.29
2023-04-17T07:20:07.402Z,20.34
2023-04-17T07:22:36.144Z,20.39
2023-04-17T07:25:05.715Z,20.40
2023-04-17T07:27:34.782Z,20.47
2023-04-17T07:30:03.465Z,20.54
2023-04-17T07:32:32.613Z,20.55
2023-04-17T07:35:01.157Z,20.56
2023-04-17T07:37:29.917Z,20.61
2023-04-17T07:39:58.537Z,20.63
2023-04-17T07:42:26.810Z,20.64
2023-04-17T07:44:56.067Z,20.60
2023-04-17T07:47:24.605Z,20.59
2023-04-17T07:49:53.206Z,20.56
2023-04-17T07:52:21.980Z,20.53
2023-04-17T07:54:50.662Z,20.53
2023-04-17T07:57:19.244Z,20.52
2023-04-17T07:59:47.961Z,20.56
2023-04-17T08:02:17.385Z,20.60
2023-04-17T08:04:46.929Z,20.66
2023-04-17T08:07:15.842Z,20.67
2023-04-17T08:09:44.536Z,20.79
2023-04-17T08:12:12.788Z,20.86
2023-04-17T08:14:44.721Z,20.91
2023-04-17T08:17:13.356Z,20.92
2023-04-17T08:19:41.639Z,20.97
2023-04-17T08:22:10.045Z,21.00
2023-04-17T08:24:38.503Z,21.07
2023-04-17T08:27:08.065Z,21.12
2023-04-17T08:29:37.907Z,21.23
2023-04-17T08:32:14.750Z,21.31
2023-04-17T08:34:44.429Z,21.44
2023-04-17T08:37:12.876Z,21.54
2023-04-17T08:39:41.458Z,21.62
2023-04-17T08:42:18.575Z,21.75
2023-04-17T08:44:47.551Z,21.88
2023-04-17T08:47:17.954Z,21.96
2023-04-17T08:49:47.528Z,22.02
2023-04-17T08:52:16.932Z,22.16
2023-04-17T08:54:45.519Z,22.30
2023-04-17T08:57:13.931Z,22.36
2023-04-17T08:59:42.567Z,22.41
2023-04-17T09:02:11.455Z,22.39
2023-04-17T09:04:41.954Z,22.41
2023-04-17T09:07:11.824Z,22.42
2023-04-17T09:09:56.239Z,22.33
2023-04-17T09:12:26.041Z,22.27
2023-04-17T09:14:54.724Z,22.23
2023-04-17T09:17:23.559Z,22.25
2023-04-17T09:20:01.709Z,22.30
2023-04-17T09:22:31.278Z,22.35
2023-04-17T09:25:00.164Z,22.43
2023-04-17T09:27:29.155Z,22.45
2023-04-17T09:30:02.732Z,22.56
2023-04-17T09:32:32.175Z,22.71
2023-04-17T09:35:02.303Z,22.97
2023-04-17T09:37:55.347Z,23.08
2023-04-17T09:40:25.210Z,23.23
2023-04-17T09:43:00.872Z,23.27
2023-04-17T09:45:35.790Z,23.36
2023-04-17T09:48:11.428Z,23.43
2023-04-17T09:50:40.245Z,23.49
2023-04-17T09:53:08.764Z,23.55
2023-04-17T09:55:38.264Z,23.57
2023-04-17T09:58:07.662Z,23.56
2023-04-17T10:00:36.979Z,23.55
2023-04-17T10:03:05.566Z,23.53
2023-04-17T10:05:35.263Z,23.48
2023-04-17T10:08:03.600Z,23.35
2023-04-17T10:10:34.255Z,23.27
2023-04-17T10:13:03.891Z,23.15
2023-04-17T10:15:32.390Z,23.07
2023-04-17T10:18:28.106Z,23.07
2023-04-17T10:20:57.012Z,23.12
2023-04-17T10:23:27.908Z,22.98
2023-04-17T10:26:28.173Z,22.88
2023-04-17T10:28:59.870Z,22.90
2023-04-17T10:32:09.383Z,22.92
2023-04-17T10:34:39.961Z,22.97
2023-04-17T10:37:15.590Z,22.97
2023-04-17T10:40:00.020Z,22.90
2023-04-17T10:42:32.959Z,22.87
2023-04-17T10:45:04.831Z,22.94
2023-04-17T10:47:34.456Z,23.02
2023-04-17T10:50:04.818Z,22.97
2023-04-17T10:52:44.975Z,22.86
2023-04-17T10:55:23.749Z,22.80
2023-04-17T10:57:56.239Z,22.79
2023-04-17T11:00:38.487Z,22.91
2023-04-17T11:03:07.618Z,23.02
2023-04-17T11:05:37.480Z,23.09
2023-04-17T11:08:06.609Z,23.19
2023-04-17T11:10:35.920Z,23.34
2023-04-17T11:13:04.312Z,23.51
2023-04-17T11:15:37.019Z,23.62
2023-04-17T11:18:05.581Z,23.75
2023-04-17T11:20:36.503Z,23.84
2023-04-17T11:23:05.704Z,23.90
2023-04-17T11:25:34.942Z,23.90
2023-04-17T11:28:06.742Z,23.85
2023-04-17T11:30:36.658Z,23.78
2023-04-17T11:33:05.746Z,23.81
2023-04-17T11:35:39.533Z,23.88
2023-04-17T11:38:12.861Z,23.90
2023-04-17T11:40:48.050Z,23.95
2023-04-17T11:43:16.756Z,24.03
2023-04-17T11:45:46.590Z,24.07
2023-04-17T11:48:15.818Z,24.19
2023-04-17T11:50:44.824Z,24.20
2023-04-17T11:53:15.045Z,24.24
2023-04-17T11:55:46.806Z,24.33
2023-04-17T11:58:15.551Z,24.45
2023-04-17T12:00:43.898Z,24.52
2023-04-17T12:03:35.300Z,24.64
2023-04-17T12:06:05.649Z,24.83
2023-04-17T12:08:47.821Z,24.94
2023-04-17T12:11:33.064Z,25.06
2023-04-17T12:14:02.622Z,25.14
2023-04-17T12:16:31.736Z,25.19
2023-04-17T12:19:00.175Z,25.27
2023-04-17T12:21:28.608Z,25.34
2023-04-17T12:23:56.938Z,25.40
2023-04-17T12:26:25.544Z,25.48
2023-04-17T12:28:54.723Z,25.56
2023-04-17T12:31:23.154Z,25.59
2023-04-17T12:33:52.810Z,25.59
2023-04-17T12:36:21.121Z,25.61
2023-04-17T12:38:49.593Z,25.64
2023-04-17T12:41:17.910Z,25.65
2023-04-17T12:43:46.153Z,25.67
2023-04-17T12:46:14.677Z,25.71
2023-04-17T12:48:43.098Z,25.74
2023-04-17T12:51:12.140Z,25.72
2023-04-17T12:53:40.419Z,25.69
2023-04-17T12:56:08.671Z,25.69
2023-04-17T12:58:37.330Z,25.62
2023-04-17T13:01:06.053Z,25.48
2023-04-17T13:03:34.698Z,25.34
2023-04-17T13:06:03.269Z,25.20
2023-04-17T13:08:32.193Z,25.17
2023-04-17T13:11:03.834Z,25.23
2023-04-17T13:13:32.289Z,25.25
2023-04-17T13:16:01.109Z,25.29
2023-04-17T13:18:29.884Z,25.27
2023-04-17T13:20:58.299Z,25.24
2023-04-17T13:23:26.708Z,25.18
2023-04-17T13:25:54.926Z,25.20
2023-04-17T13:28:23.511Z,25.20
2023-04-17T13:30:53.203Z,25.24
2023-04-17T13:33:21.952Z,25.22
2023-04-17T13:35:53.059Z,25.24
2023-04-17T13:38:21.798Z,25.27
2023-04-17T13:40:50.463Z,25.29
2023-04-17T13:43:19.199Z,25.33
2023-04-17T13:45:47.734Z,25.42
2023-04-17T13:48:16.526Z,25.54
2023-04-17T13:50:44.753Z,25.66
2023-04-17T13:53:13.794Z,25.79
2023-04-17T13:55:42.129Z,25.93
2023-04-17T13:58:10.509Z,26.01
2023-04-17T14:00:38.848Z,26.02
2023-04-17T14:03:07.344Z,26.07
2023-04-17T14:05:36.014Z,26.16
2023-04-17T14:08:04.610Z,26.15
2023-04-17T14:10:33.210Z,26.20
2023-04-17T14:13:02.021Z,26.27
2023-04-17T14:15:30.663Z,26.31
2023-04-17T14:17:59.414Z,26.30
2023-04-17T14:20:27.989Z,26.30
2023-04-17T14:22:56.301Z,26.21
2023-04-17T14:25:24.673Z,26.11
2023-04-17T14:27:53.080Z,26.07
2023-04-17T14:30:21.538Z,25.92
2023-04-17T14:32:51.951Z,25.78
2023-04-17T14:35:21.065Z,25.69
2023-04-17T14:37:49.803Z,25.65
2023-04-17T14:40:18.032Z,25.74
2023-04-17T14:42:54.264Z,25.76
2023-04-17T14:45:23.196Z,25.76
2023-04-17T14:47:51.605Z,25.75
2023-04-17T14:50:20.133Z,25.64
2023-04-17T14:52:48.512Z,25.50
2023-04-17T14:55:16.992Z,25.39
2023-04-17T14:57:45.494Z,25.26
2023-04-17T15:00:14.486Z,25.16
2023-04-17T15:02:44.157Z,25.04
2023-04-17T15:05:12.594Z,24.97
2023-04-17T15:07:41.438Z,24.86
2023-04-17T15:10:11.211Z,24.78
2023-04-17T15:12:39.838Z,24.74
2023-04-17T15:15:08.753Z,24.58
2023-04-17T15:17:37.949Z,24.53
2023-04-17T15:20:07.130Z,24.47
2023-04-17T15:22:35.458Z,24.49
2023-04-17T15:25:04.875Z,24.44
2023-04-17T15:27:33.596Z,24.38
2023-04-17T15:30:05.040Z,24.31
2023-04-17T15:32:33.722Z,24.23
2023-04-17T15:35:02.052Z,24.18
2023-04-17T15:37:30.755Z,24.13
2023-04-17T15:39:59.172Z,24.12
2023-04-17T15:42:27.940Z,24.07
2023-04-17T15:44:57.752Z,24.04
2023-04-17T15:47:26.197Z,23.97
2023-04-17T15:49:54.720Z,23.88
2023-04-17T15:52:23.022Z,23.77
2023-04-17T15:54:51.870Z,23.74
2023-04-17T15:57:20.688Z,23.68
2023-04-17T15:59:49.101Z,23.58
2023-04-17T16:02:17.711Z,23.51
2023-04-17T16:04:46.102Z,23.50
2023-04-17T16:07:15.783Z,23.45
2023-04-17T16:09:46.206Z,23.43
2023-04-17T16:12:14.420Z,23.42
2023-04-17T16:14:42.831Z,23.40
2023-04-17T16:17:11.162Z,23.34
2023-04-17T16:19:39.544Z,23.26
2023-04-17T16:22:07.777Z,23.19
2023-04-17T16:24:36.730Z,23.11
2023-04-17T16:27:06.364Z,23.06
2023-04-17T16:29:34.625Z,22.99
2023-04-17T16:32:03.386Z,22.92
2023-04-17T16:34:31.672Z,22.91
2023-04-17T16:37:00.167Z,22.86
2023-04-17T16:39:28.661Z,22.81
2023-04-17T16:41:57.940Z,22.74
2023-04-17T16:44:27.161Z,22.76
2023-04-17T16:49:27.534Z,22.69
2023-04-17T16:51:55.945Z,22.66
2023-04-17T16:54:24.244Z,22.59
2023-04-17T16:56:52.549Z,22.54
2023-04-17T16:59:20.858Z,22.46
2023-04-17T17:01:50.111Z,22.41
2023-04-17T17:04:18.507Z,22.41
2023-04-17T17:06:46.822Z,22.39
2023-04-17T17:09:15.776Z,22.33
2023-04-17T17:11:44.177Z,22.30
2023-04-17T17:14:12.702Z,22.25
2023-04-17T17:16:41.668Z,22.20
2023-04-17T17:19:10.805Z,22.15
2023-04-17T17:21:39.337Z,22.07
2023-04-17T17:24:07.769Z,22.04
2023-04-17T17:26:37.227Z,21.98
2023-04-17T17:29:05.932Z,21.92
2023-04-17T17:31:34.872Z,21.81
2023-04-17T17:34:17.120Z,21.73
2023-04-17T17:36:51.791Z,21.67
2023-04-17T17:39:22.209Z,21.71
2023-04-17T17:41:51.036Z,21.73
2023-04-17T17:44:19.651Z,21.73
2023-04-17T17:46:48.178Z,21.77
2023-04-17T17:49:17.551Z,21.78
2023-04-17T17:51:46.172Z,21.72
2023-04-17T17:54:14.657Z,21.71
2023-04-17T17:56:43.136Z,21.67
2023-04-17T17:59:11.524Z,21.71
2023-04-17T18:01:40.378Z,21.70
2023-04-17T18:04:09.250Z,21.64
2023-04-17T18:06:38.010Z,21.60
2023-04-17T18:09:06.710Z,21.57
2023-04-17T18:11:35.194Z,21.52
2023-04-17T18:14:03.582Z,21.42
2023-04-17T18:16:33.821Z,21.37
2023-04-17T18:19:04.940Z,21.37
2023-04-17T18:21:34.166Z,21.31
2023-04-17T18:24:02.550Z,21.24
2023-04-17T18:26:31.779Z,21.16
2023-04-17T18:29:00.153Z,21.10
2023-04-17T18:31:28.580Z,21.08
2023-04-17T18:33:57.245Z,21.11
2023-04-17T18:36:26.336Z,21.11
2023-04-17T18:38:54.625Z,21.06
2023-04-17T18:44:00.074Z,20.02
2023-04-17T18:46:30.653Z,21.15
2023-04-17T18:48:58.933Z,21.15
2023-04-17T18:51:27.311Z,21.11
2023-04-17T18:53:55.872Z,21.05
2023-04-17T18:56:24.559Z,21.04
2023-04-17T18:58:53.401Z,21.07
2023-04-17T19:01:21.884Z,21.06
2023-04-17T19:03:53.168Z,21.05
2023-04-17T19:06:21.897Z,21.01
2023-04-17T19:08:50.473Z,21.02
2023-04-17T19:11:18.876Z,21.03
2023-04-17T19:13:47.329Z,21.03
2023-04-17T19:16:15.850Z,21.02
2023-04-17T19:18:44.170Z,21.05
2023-04-17T19:21:12.492Z,21.09
2023-04-17T19:23:40.923Z,21.11
2023-04-17T19:26:09.893Z,21.12
2023-04-17T19:28:38.458Z,21.10
2023-04-17T19:31:06.760Z,21.07
2023-04-17T19:33:35.341Z,21.08
2023-04-17T19:36:03.848Z,21.01
2023-04-17T19:38:32.477Z,21.02
2023-04-17T19:41:18.055Z,21.06
2023-04-17T19:43:47.172Z,21.06
2023-04-17T19:46:16.031Z,21.08
2023-04-17T19:48:44.986Z,21.07
2023-04-17T19:51:13.615Z,21.06
2023-04-17T19:53:43.152Z,21.13
2023-04-17T19:56:11.480Z,21.19
2023-04-17T19:58:40.433Z,21.18
2023-04-17T20:01:09.378Z,21.16
2023-04-17T20:03:39.547Z,21.14
2023-04-17T20:06:08.115Z,21.13
2023-04-17T20:08:36.650Z,21.15
2023-04-17T20:11:06.607Z,21.16
2023-04-17T20:13:35.147Z,21.17
2023-04-17T20:16:03.420Z,21.21
2023-04-17T20:18:32.005Z,21.16
2023-04-17T20:21:03.561Z,21.16
2023-04-17T20:23:31.943Z,21.16
2023-04-17T20:26:00.524Z,21.10
2023-04-17T20:28:29.397Z,21.03
2023-04-17T20:30:57.819Z,21.00
2023-04-17T20:33:26.219Z,20.99
2023-04-17T20:35:54.823Z,20.97
2023-04-17T20:38:23.456Z,20.92
2023-04-17T20:40:51.965Z,20.91
2023-04-17T20:43:20.627Z,20.83
2023-04-17T20:45:49.662Z,20.81
2023-04-17T20:48:18.881Z,20.75
2023-04-17T20:50:47.359Z,20.67
2023-04-17T20:53:15.693Z,20.60
2023-04-17T20:55:44.273Z,20.58
2023-04-17T20:58:12.560Z,20.58
2023-04-17T21:00:47.585Z,20.45
2023-04-17T21:03:26.948Z,20.41
2023-04-17T21:05:56.161Z,20.37
2023-04-17T21:08:24.560Z,20.31
2023-04-17T21:10:53.020Z,20.27
2023-04-17T21:13:22.294Z,20.26
2023-04-17T21:15:50.520Z,20.20
2023-04-17T21:18:19.401Z,20.20
2023-04-17T21:20:47.669Z,20.18
2023-04-17T21:23:16.061Z,20.20
2023-04-17T21:25:45.128Z,20.16
2023-04-17T21:28:13.567Z,20.17
2023-04-17T21:30:41.934Z,20.16
2023-04-17T21:33:10.479Z,20.19
2023-04-17T21:35:39.158Z,20.20
2023-04-17T21:38:07.477Z,20.19
2023-04-17T21:40:37.202Z,20.16
2023-04-17T21:43:05.769Z,20.16
2023-04-17T21:45:35.156Z,20.15
2023-04-17T21:48:03.630Z,20.13
2023-04-17T21:50:32.087Z,20.15
2023-04-17T21:53:00.725Z,20.12
2023-04-17T21:55:29.204Z,20.15
2023-04-17T21:57:57.660Z,20.16
2023-04-17T22:00:26.452Z,20.19
2023-04-17T22:02:55.164Z,20.22
2023-04-17T22:05:23.476Z,20.17
2023-04-17T22:07:55.403Z,20.15
2023-04-17T22:10:24.300Z,20.15
2023-04-17T22:12:52.722Z,20.09
2023-04-17T22:15:21.012Z,20.03
2023-04-17T22:17:49.429Z,19.96
2023-04-17T22:20:18.110Z,19.90
2023-04-17T22:22:47.610Z,19.87
2023-04-17T22:25:16.306Z,19.86
2023-04-17T22:27:44.562Z,19.82
2023-04-17T22:30:13.071Z,19.81
2023-04-17T22:32:41.535Z,19.72
2023-04-17T22:35:09.885Z,19.70
2023-04-17T22:37:38.645Z,19.71
2023-04-17T22:40:08.168Z,19.73
2023-04-17T22:42:36.547Z,19.69
2023-04-17T22:45:06.080Z,19.69
2023-04-17T22:47:34.476Z,19.64
2023-04-17T22:50:03.574Z,19.58
2023-04-17T22:52:31.975Z,19.58
2023-04-17T22:55:00.338Z,19.59
2023-04-17T22:57:28.594Z,19.53
2023-04-17T22:59:56.840Z,19.43
2023-04-17T23:02:25.267Z,19.40
2023-04-17T23:04:53.661Z,19.39
2023-04-17T23:07:21.929Z,19.33
2023-04-17T23:09:50.411Z,19.25
2023-04-17T23:12:18.870Z,19.23
2023-04-17T23:14:48.560Z,19.23
2023-04-17T23:17:16.897Z,19.19
2023-04-17T23:19:45.423Z,19.17
2023-04-17T23:22:14.068Z,19.16
2023-04-17T23:24:42.401Z,19.13
2023-04-17T23:27:10.844Z,19.16
2023-04-17T23:29:39.163Z,19.16
2023-04-17T23:32:08.004Z,19.10
2023-04-17T23:34:36.341Z,19.10
2023-04-17T23:37:04.543Z,19.09
2023-04-17T23:39:33.056Z,19.06
2023-04-17T23:42:07.245Z,19.02
2023-04-17T23:44:35.942Z,18.98
2023-04-17T23:47:04.825Z,18.96
2023-04-17T23:49:33.936Z,18.96
2023-04-17T23:52:02.594Z,18.98
2023-04-17T23:54:31.108Z,19.01
2023-04-17T23:56:59.519Z,18.99
2023-04-17T23:59:28.203Z,18.97
